createdAt,value
2019-01-18T00:00:54.053Z,88.76
2019-01-18T00:01:54.031Z,88.45
2019-01-18T00:02:54.019Z,88.98
2019-01-18T00:03:54.009Z,89.29
2019-01-18T00:04:53.999Z,89.18
2019-01-18T00:05:54.023Z,90.64
2019-01-18T00:06:53.979Z,90.75
2019-01-18T00:07:53.974Z,89.81
2019-01-18T00:08:53.956Z,89.64
2019-01-18T00:09:53.945Z,89.54
2019-01-18T00:10:53.935Z,89.64
2019-01-18T00:11:53.931Z,89.12
2019-01-18T00:12:53.916Z,89.22
2019-01-18T00:13:53.901Z,89.85
2019-01-18T00:14:53.891Z,90.26
2019-01-18T00:15:53.879Z,89.95
2019-01-18T00:16:53.879Z,90.58
2019-01-18T00:17:53.861Z,90.47
2019-01-18T00:18:53.847Z,90.37
2019-01-18T00:19:53.838Z,90.68
2019-01-18T00:20:53.826Z,90.31
2019-01-18T00:21:53.823Z,90.37
2019-01-18T00:22:53.810Z,90.52
2019-01-18T00:23:53.795Z,91.25
2019-01-18T00:24:53.784Z,90.52
2019-01-18T00:25:53.773Z,90.10
2019-01-18T00:26:53.771Z,90.41
2019-01-18T00:27:53.753Z,91.04
2019-01-18T00:28:53.739Z,90.93
2019-01-18T00:29:53.730Z,91.46
2019-01-18T00:30:53.720Z,91.35
2019-01-18T00:31:53.716Z,91.08
2019-01-18T00:32:53.697Z,90.62
2019-01-18T00:33:53.685Z,90.62
2019-01-18T00:34:53.675Z,90.77
2019-01-18T00:35:53.666Z,90.66
2019-01-18T00:36:53.663Z,91.14
2019-01-18T00:37:53.643Z,91.14
2019-01-18T00:38:53.635Z,91.18
2019-01-18T00:39:53.622Z,91.56
2019-01-18T00:40:53.610Z,91.46
2019-01-18T00:41:53.609Z,91.35
2019-01-18T00:42:53.589Z,91.25
2019-01-18T00:43:53.577Z,91.81
2019-01-18T00:44:53.566Z,91.66
2019-01-18T00:45:53.557Z,91.25
2019-01-18T00:46:53.553Z,91.29
2019-01-18T00:47:53.555Z,91.81
2019-01-18T00:48:53.525Z,91.56
2019-01-18T00:49:53.514Z,91.56
2019-01-18T00:50:53.502Z,91.04
2019-01-18T00:51:53.500Z,91.46
2019-01-18T00:52:53.481Z,91.35
2019-01-18T00:53:53.471Z,91.60
2019-01-18T00:54:53.459Z,91.25
2019-01-18T00:55:53.450Z,91.66
2019-01-18T00:56:53.447Z,90.62
2019-01-18T00:57:53.428Z,90.93
2019-01-18T00:58:53.417Z,90.83
2019-01-18T00:59:53.407Z,90.93
2019-01-18T01:00:53.396Z,91.04
2019-01-18T01:01:53.392Z,91.04
2019-01-18T01:02:53.375Z,91.04
2019-01-18T01:03:53.363Z,90.87
2019-01-18T01:04:53.351Z,90.31
2019-01-18T01:05:53.343Z,90.41
2019-01-18T01:06:53.338Z,91.14
2019-01-18T01:07:53.319Z,91.14
2019-01-18T01:08:53.307Z,90.77
2019-01-18T01:09:53.297Z,91.18
2019-01-18T01:10:53.290Z,91.08
2019-01-18T01:11:53.283Z,91.50
2019-01-18T01:12:53.264Z,91.08
2019-01-18T01:13:53.253Z,91.08
2019-01-18T01:14:53.243Z,92.02
2019-01-18T01:15:53.236Z,91.39
2019-01-18T01:16:53.235Z,91.39
2019-01-18T01:17:53.210Z,91.50
2019-01-18T01:18:53.201Z,91.75
2019-01-18T01:19:53.191Z,92.06
2019-01-18T01:20:53.183Z,91.22
2019-01-18T01:21:53.179Z,91.06
2019-01-18T01:22:53.158Z,91.06
2019-01-18T01:23:53.146Z,91.27
2019-01-18T01:24:53.135Z,91.79
2019-01-18T01:25:53.124Z,91.52
2019-01-18T01:26:53.122Z,91.62
2019-01-18T01:27:53.102Z,91.94
2019-01-18T01:28:53.093Z,92.25
2019-01-18T01:29:53.081Z,92.08
2019-01-18T01:30:53.070Z,92.40
2019-01-18T01:31:53.089Z,92.29
2019-01-18T01:32:53.049Z,92.40
2019-01-18T01:33:53.040Z,92.40
2019-01-18T01:34:53.027Z,92.82
2019-01-18T01:35:53.016Z,93.13
2019-01-18T01:36:53.008Z,92.40
2019-01-18T01:37:53.006Z,92.29
2019-01-18T01:38:52.984Z,92.13
2019-01-18T01:39:52.976Z,92.23
2019-01-18T01:40:52.965Z,92.29
2019-01-18T01:41:52.954Z,93.02
2019-01-18T01:42:52.953Z,92.92
2019-01-18T01:43:52.932Z,92.92
2019-01-18T01:44:52.922Z,92.50
2019-01-18T01:45:52.916Z,92.40
2019-01-18T01:46:52.900Z,92.08
2019-01-18T01:47:52.897Z,91.77
2019-01-18T01:48:52.880Z,92.19
2019-01-18T01:49:52.869Z,93.13
2019-01-18T01:50:52.861Z,92.82
2019-01-18T01:51:52.854Z,91.46
2019-01-18T01:52:52.846Z,91.14
2019-01-18T01:53:52.826Z,90.97
2019-01-18T01:54:52.815Z,91.28
2019-01-18T01:55:52.810Z,91.18
2019-01-18T01:56:52.793Z,91.25
2019-01-18T01:57:52.798Z,91.50
2019-01-18T01:58:52.780Z,90.72
2019-01-18T01:59:52.762Z,90.97
2019-01-18T02:00:52.752Z,90.18
2019-01-18T02:01:52.746Z,90.28
2019-01-18T02:02:52.738Z,90.14
2019-01-18T02:03:52.722Z,90.70
2019-01-18T02:04:52.711Z,91.18
2019-01-18T02:05:52.706Z,91.08
2019-01-18T02:06:52.689Z,90.39
2019-01-18T02:07:52.687Z,90.59
2019-01-18T02:08:52.667Z,91.12
2019-01-18T02:09:52.657Z,90.70
2019-01-18T02:10:52.653Z,89.97
2019-01-18T02:11:52.637Z,91.12
2019-01-18T02:12:52.633Z,90.08
2019-01-18T02:13:52.619Z,90.08
2019-01-18T02:14:52.605Z,90.49
2019-01-18T02:15:52.594Z,90.59
2019-01-18T02:16:52.582Z,91.02
2019-01-18T02:17:52.580Z,90.81
2019-01-18T02:18:52.563Z,90.84
2019-01-18T02:19:52.551Z,88.96
2019-01-18T02:20:52.543Z,89.38
2019-01-18T02:21:52.532Z,89.48
2019-01-18T02:22:52.529Z,89.38
2019-01-18T02:23:52.508Z,88.61
2019-01-18T02:24:52.498Z,88.19
2019-01-18T02:25:52.488Z,88.40
2019-01-18T02:26:52.480Z,89.76
2019-01-18T02:27:52.476Z,88.92
2019-01-18T02:28:52.457Z,89.65
2019-01-18T02:29:56.582Z,88.92
2019-01-18T02:30:52.436Z,88.50
2019-01-18T02:31:52.432Z,89.55
2019-01-18T02:32:52.428Z,89.13
2019-01-18T02:33:52.407Z,89.13
2019-01-18T02:34:52.395Z,89.23
2019-01-18T02:35:52.386Z,88.61
2019-01-18T02:36:52.373Z,88.50
2019-01-18T02:37:52.370Z,88.75
2019-01-18T02:38:52.356Z,88.61
2019-01-18T02:39:52.339Z,88.34
2019-01-18T02:40:52.333Z,89.17
2019-01-18T02:41:52.319Z,88.65
2019-01-18T02:42:52.347Z,89.76
2019-01-18T02:43:52.298Z,89.59
2019-01-18T02:44:52.290Z,88.44
2019-01-18T02:45:52.278Z,88.34
2019-01-18T02:46:52.267Z,86.98
2019-01-18T02:47:52.257Z,86.45
2019-01-18T02:48:52.253Z,86.49
2019-01-18T02:49:52.234Z,87.01
2019-01-18T02:50:52.226Z,87.23
2019-01-18T02:51:52.215Z,87.54
2019-01-18T02:52:52.203Z,88.37
2019-01-18T02:53:52.202Z,88.59
2019-01-18T02:54:52.186Z,87.85
2019-01-18T02:55:52.170Z,87.64
2019-01-18T02:56:52.162Z,88.06
2019-01-18T02:57:52.154Z,87.96
2019-01-18T02:58:52.151Z,87.23
2019-01-18T02:59:52.129Z,87.01
2019-01-18T03:00:52.118Z,88.27
2019-01-18T03:01:52.151Z,87.43
2019-01-18T03:02:52.096Z,87.64
2019-01-18T03:03:52.094Z,88.65
2019-01-18T03:04:52.076Z,88.86
2019-01-18T03:05:52.067Z,88.65
2019-01-18T03:06:52.054Z,88.12
2019-01-18T03:07:52.046Z,87.81
2019-01-18T03:08:52.043Z,87.64
2019-01-18T03:09:52.027Z,87.33
2019-01-18T03:10:52.012Z,87.74
2019-01-18T03:11:52.002Z,87.60
2019-01-18T03:12:51.991Z,87.85
2019-01-18T03:13:51.990Z,86.60
2019-01-18T03:14:51.972Z,87.54
2019-01-18T03:15:51.960Z,87.85
2019-01-18T03:16:51.948Z,87.74
2019-01-18T03:17:51.939Z,87.81
2019-01-18T03:18:51.938Z,87.64
2019-01-18T03:19:51.926Z,87.74
2019-01-18T03:20:51.907Z,88.06
2019-01-18T03:21:51.898Z,88.27
2019-01-18T03:22:51.888Z,87.85
2019-01-18T03:23:51.884Z,88.34
2019-01-18T03:24:51.866Z,88.37
2019-01-18T03:25:51.860Z,88.65
2019-01-18T03:26:51.845Z,88.69
2019-01-18T03:27:51.834Z,89.32
2019-01-18T03:28:51.831Z,89.11
2019-01-18T03:29:51.818Z,89.53
2019-01-18T03:30:51.806Z,89.95
2019-01-18T03:31:51.795Z,90.16
2019-01-18T03:32:51.782Z,90.22
2019-01-18T03:33:51.779Z,90.26
2019-01-18T03:34:51.761Z,90.22
2019-01-18T03:35:51.754Z,89.59
2019-01-18T03:36:51.744Z,90.53
2019-01-18T03:37:51.736Z,90.89
2019-01-18T03:38:51.729Z,90.16
2019-01-18T03:39:51.706Z,89.90
2019-01-18T03:40:51.697Z,91.20
2019-01-18T03:41:51.695Z,90.36
2019-01-18T03:42:51.683Z,89.28
2019-01-18T03:43:51.680Z,89.59
2019-01-18T03:44:51.655Z,89.95
2019-01-18T03:45:51.643Z,89.70
2019-01-18T03:46:51.632Z,89.59
2019-01-18T03:47:51.622Z,89.48
2019-01-18T03:48:51.621Z,89.38
2019-01-18T03:49:51.601Z,89.84
2019-01-18T03:50:51.591Z,89.48
2019-01-18T03:51:51.582Z,89.84
2019-01-18T03:52:51.578Z,89.07
2019-01-18T03:53:51.569Z,89.32
2019-01-18T03:54:51.549Z,89.38
2019-01-18T03:55:51.538Z,89.32
2019-01-18T03:56:51.530Z,89.22
2019-01-18T03:57:51.517Z,89.07
2019-01-18T03:58:51.554Z,89.22
2019-01-18T03:59:51.497Z,89.32
2019-01-18T04:00:51.486Z,89.80
2019-01-18T04:01:51.475Z,89.00
2019-01-18T04:02:51.466Z,89.63
2019-01-18T04:03:51.455Z,89.59
2019-01-18T04:04:51.455Z,89.38
2019-01-18T04:05:51.433Z,89.48
2019-01-18T04:06:51.425Z,89.22
2019-01-18T04:07:51.419Z,88.75
2019-01-18T04:08:51.406Z,88.59
2019-01-18T04:09:51.398Z,88.90
2019-01-18T04:10:51.382Z,88.23
2019-01-18T04:11:51.370Z,88.37
2019-01-18T04:12:51.368Z,88.59
2019-01-18T04:13:51.350Z,88.37
2019-01-18T04:14:51.346Z,88.79
2019-01-18T04:15:51.326Z,88.59
2019-01-18T04:16:51.316Z,88.37
2019-01-18T04:17:51.308Z,88.37
2019-01-18T04:18:51.299Z,87.96
2019-01-18T04:19:51.295Z,87.60
2019-01-18T04:20:51.284Z,87.74
2019-01-18T04:21:51.265Z,87.43
2019-01-18T04:22:51.261Z,87.23
2019-01-18T04:23:51.246Z,86.91
2019-01-18T04:24:51.290Z,87.29
2019-01-18T04:25:51.221Z,86.91
2019-01-18T04:26:51.212Z,86.70
2019-01-18T04:27:51.201Z,86.28
2019-01-18T04:28:51.195Z,85.65
2019-01-18T04:29:51.189Z,85.55
2019-01-18T04:30:51.172Z,85.82
2019-01-18T04:31:51.167Z,85.65
2019-01-18T04:32:51.149Z,85.65
2019-01-18T04:33:51.138Z,84.81
2019-01-18T04:34:51.135Z,84.81
2019-01-18T04:35:51.117Z,85.34
2019-01-18T04:36:51.107Z,84.50
2019-01-18T04:37:51.097Z,84.99
2019-01-18T04:38:51.087Z,85.65
2019-01-18T04:39:51.083Z,84.19
2019-01-18T04:40:51.067Z,84.92
2019-01-18T04:41:51.056Z,84.71
2019-01-18T04:42:51.089Z,83.98
2019-01-18T04:43:51.035Z,83.45
2019-01-18T04:44:51.030Z,83.14
2019-01-18T04:45:51.012Z,84.39
2019-01-18T04:46:51.003Z,83.77
2019-01-18T04:47:50.996Z,83.87
2019-01-18T04:48:50.980Z,84.50
2019-01-18T04:49:50.978Z,84.92
2019-01-18T04:50:50.959Z,84.39
2019-01-18T04:51:50.948Z,83.87
2019-01-18T04:52:50.941Z,83.66
2019-01-18T04:53:50.931Z,83.25
2019-01-18T04:54:50.928Z,83.56
2019-01-18T04:55:50.907Z,81.78
2019-01-18T04:56:50.898Z,82.93
2019-01-18T04:57:50.886Z,82.65
2019-01-18T04:58:50.874Z,83.28
2019-01-18T04:59:50.873Z,82.72
2019-01-18T05:00:50.853Z,83.59
2019-01-18T05:01:50.844Z,82.09
2019-01-18T05:02:50.832Z,81.57
2019-01-18T05:03:50.823Z,81.57
2019-01-18T05:04:50.821Z,82.09
2019-01-18T05:05:50.803Z,82.13
2019-01-18T05:06:50.789Z,81.99
2019-01-18T05:07:50.780Z,82.30
2019-01-18T05:08:50.769Z,81.71
2019-01-18T05:09:50.768Z,81.99
2019-01-18T05:10:50.751Z,82.03
2019-01-18T05:11:50.742Z,81.88
2019-01-18T05:12:50.733Z,80.52
2019-01-18T05:13:50.717Z,82.13
2019-01-18T05:14:50.715Z,82.51
2019-01-18T05:15:50.697Z,81.71
2019-01-18T05:16:50.688Z,81.67
2019-01-18T05:17:50.682Z,81.71
2019-01-18T05:18:50.663Z,81.71
2019-01-18T05:19:50.689Z,81.29
2019-01-18T05:20:50.646Z,81.04
2019-01-18T05:21:50.635Z,81.99
2019-01-18T05:22:50.624Z,81.29
2019-01-18T05:23:50.618Z,81.60
2019-01-18T05:24:50.599Z,82.34
2019-01-18T05:25:50.597Z,81.50
2019-01-18T05:26:50.580Z,81.36
2019-01-18T05:27:50.574Z,80.35
2019-01-18T05:28:50.560Z,82.23
2019-01-18T05:29:50.546Z,80.66
2019-01-18T05:30:50.543Z,80.63
2019-01-18T05:31:50.525Z,80.00
2019-01-18T05:32:50.519Z,79.27
2019-01-18T05:33:50.504Z,80.63
2019-01-18T05:34:50.500Z,80.35
2019-01-18T05:35:50.498Z,79.90
2019-01-18T05:36:50.476Z,80.77
2019-01-18T05:37:50.464Z,80.04
2019-01-18T05:38:50.451Z,80.35
2019-01-18T05:39:50.441Z,80.04
2019-01-18T05:40:50.444Z,80.66
2019-01-18T05:41:50.422Z,79.72
2019-01-18T05:42:50.412Z,80.24
2019-01-18T05:43:50.398Z,80.14
2019-01-18T05:44:50.390Z,79.61
2019-01-18T05:45:50.390Z,80.24
2019-01-18T05:46:50.371Z,80.56
2019-01-18T05:47:50.360Z,81.19
2019-01-18T05:48:50.347Z,80.66
2019-01-18T05:49:50.334Z,80.56
2019-01-18T05:50:50.336Z,79.93
2019-01-18T05:51:50.313Z,79.20
2019-01-18T05:52:50.312Z,78.88
2019-01-18T05:53:50.293Z,79.72
2019-01-18T05:54:50.334Z,80.04
2019-01-18T05:55:50.294Z,79.93
2019-01-18T05:56:50.262Z,79.93
2019-01-18T05:57:50.253Z,78.88
2019-01-18T05:58:50.244Z,79.09
2019-01-18T05:59:50.229Z,80.35
2019-01-18T06:00:55.188Z,80.14
2019-01-18T06:01:51.207Z,79.93
2019-01-18T06:02:50.197Z,78.88
2019-01-18T06:03:50.190Z,78.15
2019-01-18T06:04:50.176Z,78.88
2019-01-18T06:05:50.172Z,78.99
2019-01-18T06:06:50.156Z,79.72
2019-01-18T06:07:50.146Z,79.83
2019-01-18T06:08:50.138Z,79.93
2019-01-18T06:09:50.123Z,80.14
2019-01-18T06:10:50.125Z,79.93
2019-01-18T06:11:50.102Z,79.20
2019-01-18T06:12:50.090Z,80.24
2019-01-18T06:13:50.086Z,80.28
2019-01-18T06:14:50.070Z,80.35
2019-01-18T06:15:50.095Z,80.35
2019-01-18T06:16:50.049Z,80.46
2019-01-18T06:17:50.041Z,80.24
2019-01-18T06:18:50.028Z,80.24
2019-01-18T06:19:50.090Z,78.99
2019-01-18T06:20:50.009Z,79.93
2019-01-18T06:21:50.006Z,80.24
2019-01-18T06:22:49.984Z,80.35
2019-01-18T06:23:49.975Z,80.77
2019-01-18T06:24:49.965Z,81.29
2019-01-18T06:25:49.953Z,79.72
2019-01-18T06:26:49.954Z,79.93
2019-01-18T06:27:49.940Z,79.30
2019-01-18T06:28:49.922Z,78.92
2019-01-18T06:29:49.910Z,78.92
2019-01-18T06:30:49.903Z,79.41
2019-01-18T06:31:49.898Z,79.34
2019-01-18T06:32:49.917Z,80.18
2019-01-18T06:33:49.873Z,79.13
2019-01-18T06:34:49.858Z,78.92
2019-01-18T06:35:49.847Z,79.86
2019-01-18T06:36:49.845Z,80.38
2019-01-18T06:37:49.826Z,80.07
2019-01-18T06:38:49.815Z,79.23
2019-01-18T06:39:49.808Z,80.07
2019-01-18T06:40:49.795Z,80.28
2019-01-18T06:41:49.794Z,80.70
2019-01-18T06:42:49.774Z,80.63
2019-01-18T06:43:49.763Z,80.00
2019-01-18T06:44:49.753Z,79.90
2019-01-18T06:45:49.741Z,80.21
2019-01-18T06:46:49.742Z,80.32
2019-01-18T06:47:49.721Z,80.63
2019-01-18T06:48:49.713Z,80.00
2019-01-18T06:49:49.700Z,80.53
2019-01-18T06:50:49.688Z,80.84
2019-01-18T06:51:49.687Z,80.46
2019-01-18T06:52:49.667Z,80.15
2019-01-18T06:53:49.658Z,80.11
2019-01-18T06:54:49.645Z,80.57
2019-01-18T06:55:49.637Z,80.32
2019-01-18T06:56:49.673Z,80.84
2019-01-18T06:57:49.641Z,81.82
2019-01-18T06:58:49.605Z,80.57
2019-01-18T06:59:49.595Z,80.88
2019-01-18T07:00:49.585Z,80.46
2019-01-18T07:01:49.572Z,81.40
2019-01-18T07:02:49.569Z,80.88
2019-01-18T07:03:49.554Z,80.71
2019-01-18T07:04:49.540Z,80.15
2019-01-18T07:05:49.531Z,80.77
2019-01-18T07:06:49.521Z,80.91
2019-01-18T07:07:49.517Z,79.93
2019-01-18T07:08:49.498Z,80.57
2019-01-18T07:09:49.488Z,80.29
2019-01-18T07:10:49.476Z,80.15
2019-01-18T07:11:49.465Z,79.93
2019-01-18T07:12:49.470Z,80.60
2019-01-18T07:13:49.445Z,79.97
2019-01-18T07:14:49.435Z,80.46
2019-01-18T07:15:49.424Z,80.18
2019-01-18T07:16:49.413Z,80.60
2019-01-18T07:17:49.411Z,80.29
2019-01-18T07:18:49.391Z,80.49
2019-01-18T07:19:49.381Z,80.18
2019-01-18T07:20:49.375Z,80.08
2019-01-18T07:21:49.358Z,80.18
2019-01-18T07:22:49.358Z,80.39
2019-01-18T07:23:49.339Z,80.08
2019-01-18T07:24:49.326Z,80.08
2019-01-18T07:25:49.320Z,80.49
2019-01-18T07:26:49.311Z,79.34
2019-01-18T07:27:49.303Z,79.66
2019-01-18T07:28:49.287Z,80.18
2019-01-18T07:29:49.274Z,79.24
2019-01-18T07:30:49.265Z,79.97
2019-01-18T07:31:49.252Z,79.34
2019-01-18T07:32:49.254Z,79.44
2019-01-18T07:33:49.232Z,78.92
2019-01-18T07:34:49.219Z,79.03
2019-01-18T07:35:49.209Z,79.24
2019-01-18T07:36:49.203Z,78.39
2019-01-18T07:37:49.198Z,78.50
2019-01-18T07:38:49.177Z,78.92
2019-01-18T07:39:49.167Z,79.34
2019-01-18T07:40:49.158Z,79.34
2019-01-18T07:41:49.147Z,78.92
2019-01-18T07:42:49.143Z,79.03
2019-01-18T07:43:49.124Z,79.03
2019-01-18T07:44:49.115Z,79.13
2019-01-18T07:45:49.104Z,79.20
2019-01-18T07:46:49.092Z,78.99
2019-01-18T07:47:49.139Z,79.03
2019-01-18T07:48:49.072Z,78.47
2019-01-18T07:49:49.062Z,79.13
2019-01-18T07:50:49.052Z,79.03
2019-01-18T07:51:49.040Z,78.71
2019-01-18T07:52:49.039Z,78.71
2019-01-18T07:53:49.019Z,79.03
2019-01-18T07:54:49.008Z,78.92
2019-01-18T07:55:49.000Z,78.47
2019-01-18T07:56:48.989Z,78.05
2019-01-18T07:57:49.023Z,79.44
2019-01-18T07:58:48.967Z,78.15
2019-01-18T07:59:48.958Z,78.57
2019-01-18T08:00:48.945Z,78.29
2019-01-18T08:01:48.944Z,78.57
2019-01-18T08:02:48.931Z,78.47
2019-01-18T08:03:48.914Z,77.70
2019-01-18T08:04:48.901Z,77.70
2019-01-18T08:05:48.893Z,77.28
2019-01-18T08:06:48.884Z,76.54
2019-01-18T08:07:48.876Z,77.38
2019-01-18T08:08:48.870Z,77.31
2019-01-18T08:09:48.849Z,77.52
2019-01-18T08:10:48.839Z,77.38
2019-01-18T08:11:48.832Z,77.91
2019-01-18T08:12:48.817Z,77.70
2019-01-18T08:13:48.816Z,77.84
2019-01-18T08:14:48.796Z,78.22
2019-01-18T08:15:48.786Z,77.62
2019-01-18T08:16:48.777Z,77.91
2019-01-18T08:17:48.769Z,78.22
2019-01-18T08:18:48.764Z,78.53
2019-01-18T08:19:48.747Z,78.36
2019-01-18T08:20:48.733Z,78.43
2019-01-18T08:21:48.722Z,77.17
2019-01-18T08:22:48.713Z,77.17
2019-01-18T08:23:48.712Z,77.03
2019-01-18T08:24:48.690Z,75.98
2019-01-18T08:25:48.680Z,76.65
2019-01-18T08:26:48.767Z,76.40
2019-01-18T08:27:48.659Z,76.40
2019-01-18T08:28:48.678Z,75.43
2019-01-18T08:29:48.638Z,75.70
2019-01-18T08:30:48.627Z,75.08
2019-01-18T08:31:48.617Z,75.08
2019-01-18T08:32:48.606Z,75.39
2019-01-18T08:33:48.608Z,74.13
2019-01-18T08:34:48.585Z,75.08
2019-01-18T08:35:48.574Z,75.60
2019-01-18T08:36:48.565Z,75.63
2019-01-18T08:37:48.553Z,76.37
2019-01-18T08:38:48.551Z,76.47
2019-01-18T08:39:48.533Z,76.57
2019-01-18T08:40:48.524Z,75.49
2019-01-18T08:41:48.510Z,76.12
2019-01-18T08:42:48.506Z,76.54
2019-01-18T08:43:48.496Z,76.44
2019-01-18T08:44:48.479Z,75.92
2019-01-18T08:45:48.465Z,76.54
2019-01-18T08:46:48.459Z,76.37
2019-01-18T08:47:48.448Z,76.89
2019-01-18T08:48:48.447Z,76.89
2019-01-18T08:49:48.422Z,77.24
2019-01-18T08:50:48.416Z,77.94
2019-01-18T08:51:48.402Z,77.97
2019-01-18T08:52:48.394Z,77.14
2019-01-18T08:53:48.388Z,77.83
2019-01-18T08:54:48.369Z,77.28
2019-01-18T08:55:48.360Z,76.30
2019-01-18T08:56:48.350Z,75.25
2019-01-18T08:57:48.343Z,74.27
2019-01-18T08:58:48.335Z,75.01
2019-01-18T08:59:48.315Z,75.11
2019-01-18T09:00:48.308Z,75.18
2019-01-18T09:01:48.294Z,74.24
2019-01-18T09:02:48.285Z,74.04
2019-01-18T09:03:48.283Z,74.04
2019-01-18T09:04:48.262Z,75.11
2019-01-18T09:05:48.251Z,75.22
2019-01-18T09:06:48.241Z,75.32
2019-01-18T09:07:48.231Z,75.78
2019-01-18T09:08:48.227Z,77.07
2019-01-18T09:09:48.208Z,77.38
2019-01-18T09:10:48.197Z,77.38
2019-01-18T09:11:48.188Z,77.28
2019-01-18T09:12:48.176Z,78.01
2019-01-18T09:13:48.173Z,78.11
2019-01-18T09:14:48.175Z,78.43
2019-01-18T09:15:48.153Z,78.22
2019-01-18T09:16:48.135Z,79.05
2019-01-18T09:17:48.131Z,78.85
2019-01-18T09:18:48.120Z,78.85
2019-01-18T09:19:48.105Z,79.05
2019-01-18T09:20:48.089Z,78.85
2019-01-18T09:21:48.085Z,78.43
2019-01-18T09:22:48.074Z,77.97
2019-01-18T09:23:48.083Z,77.20
2019-01-18T09:24:48.048Z,76.57
2019-01-18T09:25:48.039Z,77.00
2019-01-18T09:26:48.026Z,77.00
2019-01-18T09:27:48.015Z,77.20
2019-01-18T09:28:48.006Z,77.52
2019-01-18T09:29:48.007Z,77.52
2019-01-18T09:30:47.983Z,77.10
2019-01-18T09:31:47.972Z,77.31
2019-01-18T09:32:47.963Z,77.31
2019-01-18T09:33:47.950Z,77.42
2019-01-18T09:34:47.953Z,78.25
2019-01-18T09:35:47.929Z,78.15
2019-01-18T09:36:47.920Z,77.94
2019-01-18T09:37:47.908Z,77.62
2019-01-18T09:38:47.901Z,77.62
2019-01-18T09:39:47.898Z,77.00
2019-01-18T09:40:47.878Z,77.52
2019-01-18T09:41:47.866Z,77.73
2019-01-18T09:42:47.854Z,77.52
2019-01-18T09:43:47.845Z,77.17
2019-01-18T09:44:47.842Z,76.54
2019-01-18T09:45:47.824Z,77.06
2019-01-18T09:46:47.816Z,76.86
2019-01-18T09:47:47.801Z,77.28
2019-01-18T09:48:47.790Z,77.76
2019-01-18T09:49:47.792Z,77.34
2019-01-18T09:50:47.769Z,77.24
2019-01-18T09:51:47.761Z,77.14
2019-01-18T09:52:47.747Z,77.34
2019-01-18T09:53:47.739Z,76.82
2019-01-18T09:54:47.736Z,76.16
2019-01-18T09:55:47.716Z,76.93
2019-01-18T09:56:47.708Z,77.10
2019-01-18T09:57:47.696Z,77.10
2019-01-18T09:58:47.755Z,76.79
2019-01-18T09:59:47.682Z,76.79
2019-01-18T10:00:47.662Z,76.26
2019-01-18T10:01:49.352Z,76.37
2019-01-18T10:02:47.641Z,76.26
2019-01-18T10:03:47.631Z,76.68
2019-01-18T10:04:47.631Z,76.44
2019-01-18T10:05:47.609Z,75.92
2019-01-18T10:06:47.598Z,75.53
2019-01-18T10:07:47.595Z,76.68
2019-01-18T10:08:47.578Z,76.23
2019-01-18T10:09:47.577Z,75.08
2019-01-18T10:10:47.555Z,75.29
2019-01-18T10:11:47.546Z,75.50
2019-01-18T10:12:47.537Z,76.23
2019-01-18T10:13:47.523Z,75.81
2019-01-18T10:14:47.523Z,75.60
2019-01-18T10:15:47.503Z,75.60
2019-01-18T10:16:47.491Z,75.39
2019-01-18T10:17:47.481Z,75.39
2019-01-18T10:18:48.885Z,76.09
2019-01-18T10:19:47.469Z,75.67
2019-01-18T10:20:47.449Z,75.15
2019-01-18T10:21:47.500Z,75.67
2019-01-18T10:22:47.514Z,75.46
2019-01-18T10:23:47.417Z,75.46
2019-01-18T10:24:47.418Z,75.67
2019-01-18T10:25:47.395Z,75.15
2019-01-18T10:26:47.389Z,75.36
2019-01-18T10:27:47.373Z,75.46
2019-01-18T10:28:47.364Z,75.57
2019-01-18T10:29:47.361Z,75.67
2019-01-18T10:30:47.341Z,75.98
2019-01-18T10:31:47.335Z,76.30
2019-01-18T10:32:47.319Z,75.46
2019-01-18T10:33:47.311Z,76.06
2019-01-18T10:34:47.310Z,75.01
2019-01-18T10:35:47.287Z,74.80
2019-01-18T10:36:47.277Z,74.94
2019-01-18T10:37:47.267Z,75.26
2019-01-18T10:38:47.262Z,75.15
2019-01-18T10:39:47.256Z,75.67
2019-01-18T10:40:47.234Z,75.53
2019-01-18T10:41:47.223Z,74.70
2019-01-18T10:42:47.211Z,74.91
2019-01-18T10:43:47.201Z,75.01
2019-01-18T10:44:47.218Z,75.74
2019-01-18T10:45:47.182Z,75.43
2019-01-18T10:46:47.169Z,75.53
2019-01-18T10:47:47.157Z,75.95
2019-01-18T10:48:47.147Z,75.01
2019-01-18T10:49:47.136Z,74.91
2019-01-18T10:50:47.134Z,75.12
2019-01-18T10:51:47.115Z,74.28
2019-01-18T10:52:47.106Z,74.70
2019-01-18T10:53:47.092Z,74.63
2019-01-18T10:54:47.083Z,74.84
2019-01-18T10:55:47.126Z,74.84
2019-01-18T10:56:47.066Z,74.32
2019-01-18T10:57:47.051Z,74.73
2019-01-18T10:58:47.039Z,74.94
2019-01-18T10:59:47.028Z,74.01
2019-01-18T11:00:47.028Z,74.94
2019-01-18T11:01:47.007Z,73.83
2019-01-18T11:02:46.995Z,73.72
2019-01-18T11:03:46.985Z,74.73
2019-01-18T11:04:46.975Z,73.90
2019-01-18T11:05:46.972Z,73.79
2019-01-18T11:06:46.954Z,73.48
2019-01-18T11:07:46.943Z,73.07
2019-01-18T11:08:46.931Z,73.38
2019-01-18T11:09:46.920Z,73.03
2019-01-18T11:10:46.919Z,72.61
2019-01-18T11:11:46.899Z,73.34
2019-01-18T11:12:46.887Z,72.41
2019-01-18T11:13:46.878Z,72.72
2019-01-18T11:14:46.868Z,73.34
2019-01-18T11:15:46.863Z,74.60
2019-01-18T11:16:46.846Z,73.34
2019-01-18T11:17:46.834Z,73.13
2019-01-18T11:18:46.825Z,73.13
2019-01-18T11:19:46.817Z,72.41
2019-01-18T11:20:46.810Z,72.82
2019-01-18T11:21:46.792Z,72.92
2019-01-18T11:22:46.781Z,72.41
2019-01-18T11:23:46.772Z,72.19
2019-01-18T11:24:46.763Z,72.92
2019-01-18T11:25:46.757Z,72.41
2019-01-18T11:26:46.737Z,73.13
2019-01-18T11:27:46.726Z,72.41
2019-01-18T11:28:46.716Z,72.61
2019-01-18T11:29:46.708Z,72.72
2019-01-18T11:30:46.702Z,71.36
2019-01-18T11:31:46.690Z,71.67
2019-01-18T11:32:46.671Z,71.78
2019-01-18T11:33:46.662Z,70.84
2019-01-18T11:34:46.651Z,71.04
2019-01-18T11:35:46.648Z,71.04
2019-01-18T11:36:46.630Z,71.26
2019-01-18T11:37:46.619Z,70.32
2019-01-18T11:38:46.607Z,71.15
2019-01-18T11:39:46.596Z,70.63
2019-01-18T11:40:46.597Z,71.01
2019-01-18T11:41:46.575Z,71.47
2019-01-18T11:42:46.566Z,70.70
2019-01-18T11:43:46.553Z,70.42
2019-01-18T11:44:46.543Z,69.69
2019-01-18T11:45:46.540Z,69.38
2019-01-18T11:46:46.521Z,69.27
2019-01-18T11:47:46.511Z,70.00
2019-01-18T11:48:50.258Z,70.42
2019-01-18T11:49:46.492Z,70.70
2019-01-18T11:50:46.520Z,71.22
2019-01-18T11:51:46.468Z,70.11
2019-01-18T11:52:46.456Z,69.87
2019-01-18T11:53:46.449Z,69.66
2019-01-18T11:54:46.435Z,70.50
2019-01-18T11:55:46.424Z,69.48
2019-01-18T11:56:46.423Z,68.54
2019-01-18T11:57:46.409Z,69.59
2019-01-18T11:58:46.395Z,68.23
2019-01-18T11:59:49.105Z,67.60
2019-01-18T12:00:46.372Z,67.71
2019-01-18T12:01:46.369Z,67.29
2019-01-18T12:02:46.349Z,67.26
2019-01-18T12:03:46.339Z,67.36
2019-01-18T12:04:46.327Z,67.68
2019-01-18T12:05:46.319Z,68.41
2019-01-18T12:06:46.320Z,69.24
2019-01-18T12:07:46.297Z,69.56
2019-01-18T12:08:46.285Z,70.50
2019-01-18T12:09:46.278Z,70.25
2019-01-18T12:10:46.273Z,69.35
2019-01-18T12:11:46.265Z,69.87
2019-01-18T12:12:46.244Z,68.62
2019-01-18T12:13:46.230Z,69.45
2019-01-18T12:14:46.221Z,69.24
2019-01-18T12:15:46.209Z,69.76
2019-01-18T12:16:46.209Z,69.35
2019-01-18T12:17:46.193Z,68.10
2019-01-18T12:18:46.179Z,67.16
2019-01-18T12:19:46.166Z,67.88
2019-01-18T12:20:46.157Z,68.59
2019-01-18T12:21:46.156Z,69.45
2019-01-18T12:22:46.137Z,69.42
2019-01-18T12:23:46.123Z,68.41
2019-01-18T12:24:46.114Z,68.10
2019-01-18T12:25:46.101Z,67.88
2019-01-18T12:26:46.100Z,68.38
2019-01-18T12:27:46.085Z,68.41
2019-01-18T12:28:46.070Z,67.78
2019-01-18T12:29:46.059Z,67.16
2019-01-18T12:30:46.048Z,68.27
2019-01-18T12:31:46.047Z,67.47
2019-01-18T12:32:46.028Z,68.10
2019-01-18T12:33:46.016Z,67.05
2019-01-18T12:34:46.005Z,66.32
2019-01-18T12:35:45.994Z,67.36
2019-01-18T12:36:46.002Z,66.42
2019-01-18T12:37:45.978Z,65.70
2019-01-18T12:38:45.964Z,66.42
2019-01-18T12:39:45.953Z,67.36
2019-01-18T12:40:45.940Z,67.75
2019-01-18T12:41:45.938Z,66.95
2019-01-18T12:42:45.921Z,66.92
2019-01-18T12:43:45.944Z,66.53
2019-01-18T12:44:45.898Z,66.85
2019-01-18T12:45:45.889Z,67.05
2019-01-18T12:46:45.888Z,66.95
2019-01-18T12:47:45.867Z,66.95
2019-01-18T12:48:45.856Z,66.11
2019-01-18T12:49:45.846Z,66.95
2019-01-18T12:50:45.834Z,66.25
2019-01-18T12:51:45.832Z,66.11
2019-01-18T12:52:45.817Z,66.53